createdAt,value
2023-08-29T00:00:39.691Z,2.20
2023-08-29T00:01:39.764Z,2.00
2023-08-29T00:02:39.782Z,2.00
2023-08-29T00:03:39.790Z,2.20
2023-08-29T00:04:39.658Z,1.80
2023-08-29T00:05:39.737Z,1.90
2023-08-29T00:06:39.645Z,2.20
2023-08-29T00:07:39.612Z,1.90
2023-08-29T00:08:39.613Z,2.20
2023-08-29T00:09:39.612Z,2.30
2023-08-29T00:10:39.577Z,2.60
2023-08-29T00:11:39.583Z,2.40
2023-08-29T00:12:39.607Z,2.00
2023-08-29T00:13:39.597Z,2.50
2023-08-29T00:14:39.554Z,2.60
2023-08-29T00:15:39.532Z,2.60
2023-08-29T00:16:39.555Z,2.70
2023-08-29T00:17:39.592Z,2.50
2023-08-29T00:18:39.527Z,2.40
2023-08-29T00:19:39.486Z,2.50
2023-08-29T00:20:39.486Z,2.60
2023-08-29T00:21:39.475Z,2.40
2023-08-29T00:22:39.452Z,2.30
2023-08-29T00:23:39.493Z,2.60
2023-08-29T00:24:39.440Z,2.20
2023-08-29T00:25:39.430Z,2.80
2023-08-29T00:26:39.417Z,2.60
2023-08-29T00:27:39.437Z,2.60
2023-08-29T00:28:39.418Z,2.50
2023-08-29T00:29:39.390Z,2.30
2023-08-29T00:30:41.565Z,2.40
2023-08-29T00:31:39.403Z,2.40
2023-08-29T00:32:39.375Z,2.60
2023-08-29T00:33:39.397Z,2.30
2023-08-29T00:34:39.392Z,2.50
2023-08-29T00:35:39.384Z,2.60
2023-08-29T00:36:39.384Z,2.60
2023-08-29T00:37:39.292Z,2.20
2023-08-29T00:38:39.328Z,2.10
2023-08-29T00:39:48.082Z,2.40
2023-08-29T00:40:39.344Z,2.40
2023-08-29T00:41:39.343Z,2.40
2023-08-29T00:42:39.259Z,2.40
2023-08-29T00:43:39.272Z,2.50
2023-08-29T00:44:39.271Z,2.20
2023-08-29T00:45:39.211Z,2.30
2023-08-29T00:46:39.204Z,2.20
2023-08-29T00:47:39.285Z,2.30
2023-08-29T00:48:39.195Z,2.50
2023-08-29T00:49:39.252Z,2.60
2023-08-29T00:50:39.176Z,2.60
2023-08-29T00:51:39.143Z,2.30
2023-08-29T00:52:39.171Z,2.50
2023-08-29T00:53:39.204Z,2.60
2023-08-29T00:54:39.113Z,2.50
2023-08-29T00:55:39.112Z,2.30
2023-08-29T00:56:39.082Z,2.50
2023-08-29T00:57:39.101Z,2.30
2023-08-29T00:58:39.082Z,2.20
2023-08-29T00:59:39.111Z,3.10
2023-08-29T01:00:39.071Z,2.10
2023-08-29T01:01:39.098Z,2.60
2023-08-29T01:02:39.095Z,2.30
2023-08-29T01:03:39.061Z,2.70
2023-08-29T01:04:39.004Z,2.70
2023-08-29T01:05:38.996Z,2.30
2023-08-29T01:06:39.040Z,2.50
2023-08-29T01:07:38.974Z,2.60
2023-08-29T01:08:38.993Z,2.40
2023-08-29T01:09:38.997Z,2.40
2023-08-29T01:10:38.989Z,2.30
2023-08-29T01:11:38.969Z,2.40
2023-08-29T01:12:38.920Z,2.20
2023-08-29T01:13:38.935Z,2.40
2023-08-29T01:14:38.954Z,2.20
2023-08-29T01:15:38.911Z,2.20
2023-08-29T01:16:38.909Z,2.40
2023-08-29T01:17:38.936Z,2.40
2023-08-29T01:18:38.918Z,2.30
2023-08-29T01:19:38.879Z,2.50
2023-08-29T01:20:38.900Z,2.30
2023-08-29T01:21:38.820Z,2.20
2023-08-29T01:22:38.841Z,2.00
2023-08-29T01:23:38.809Z,2.20
2023-08-29T01:24:38.810Z,2.20
2023-08-29T01:25:38.830Z,2.10
2023-08-29T01:26:38.805Z,2.00
2023-08-29T01:27:38.763Z,2.20
2023-08-29T01:28:38.774Z,1.90
2023-08-29T01:29:38.752Z,2.00
2023-08-29T01:30:38.777Z,2.20
2023-08-29T01:31:38.805Z,2.20
2023-08-29T01:32:38.715Z,2.10
2023-08-29T01:33:38.744Z,2.10
2023-08-29T01:34:38.717Z,2.00
2023-08-29T01:35:38.733Z,1.90
2023-08-29T01:36:38.687Z,2.50
2023-08-29T01:37:38.665Z,2.30
2023-08-29T01:38:38.660Z,1.90
2023-08-29T01:39:38.637Z,2.10
2023-08-29T01:40:38.642Z,2.20
2023-08-29T01:41:38.662Z,2.60
2023-08-29T01:42:38.597Z,1.70
2023-08-29T01:43:38.576Z,2.10
2023-08-29T01:44:38.604Z,2.20
2023-08-29T01:45:38.687Z,1.90
2023-08-29T01:46:38.563Z,2.20
2023-08-29T01:47:38.616Z,1.90
2023-08-29T01:48:38.609Z,1.80
2023-08-29T01:49:38.528Z,2.00
2023-08-29T01:50:38.526Z,1.90
2023-08-29T01:51:38.569Z,2.00
2023-08-29T01:52:38.518Z,2.00
2023-08-29T01:53:38.515Z,1.90
2023-08-29T01:54:38.473Z,2.10
2023-08-29T01:55:38.456Z,1.80
2023-08-29T01:56:38.482Z,2.00
2023-08-29T01:57:38.423Z,1.90
2023-08-29T01:58:38.444Z,2.10
2023-08-29T01:59:38.428Z,2.10
2023-08-29T02:00:38.433Z,2.00
2023-08-29T02:01:38.406Z,1.80
2023-08-29T02:02:38.450Z,2.20
2023-08-29T02:03:38.401Z,2.30
2023-08-29T02:04:38.443Z,2.00
2023-08-29T02:05:38.370Z,2.30
2023-08-29T02:06:38.368Z,2.10
2023-08-29T02:07:38.327Z,1.90
2023-08-29T02:08:38.344Z,1.90
2023-08-29T02:09:38.324Z,2.10
2023-08-29T02:10:38.316Z,2.00
2023-08-29T02:11:38.300Z,2.00
2023-08-29T02:12:38.320Z,1.90
2023-08-29T02:13:38.266Z,2.10
2023-08-29T02:14:38.262Z,2.00
2023-08-29T02:15:38.277Z,1.70
2023-08-29T02:16:38.307Z,1.80
2023-08-29T02:17:38.287Z,2.00
2023-08-29T02:18:38.328Z,2.10
2023-08-29T02:19:38.368Z,2.10
2023-08-29T02:20:38.306Z,2.10
2023-08-29T02:21:38.212Z,1.80
2023-08-29T02:22:38.332Z,1.80
2023-08-29T02:23:38.196Z,2.10
2023-08-29T02:24:38.200Z,2.00
2023-08-29T02:25:38.215Z,1.80
2023-08-29T02:26:38.188Z,2.00
2023-08-29T02:27:38.204Z,2.00
2023-08-29T02:28:38.208Z,2.20
2023-08-29T02:29:38.113Z,2.00
2023-08-29T02:30:38.130Z,2.30
2023-08-29T02:31:38.086Z,1.90
2023-08-29T02:32:38.278Z,2.00
2023-08-29T02:33:38.067Z,1.70
2023-08-29T02:34:38.181Z,1.60
2023-08-29T02:35:38.599Z,2.00
2023-08-29T02:36:38.904Z,2.10
2023-08-29T02:37:39.072Z,1.90
2023-08-29T02:38:38.493Z,2.10
2023-08-29T02:39:39.047Z,1.80
2023-08-29T02:40:38.568Z,1.80
2023-08-29T02:41:38.422Z,2.10
2023-08-29T02:42:38.128Z,1.80
2023-08-29T02:43:38.309Z,2.10
2023-08-29T02:44:37.953Z,1.90
2023-08-29T02:45:38.061Z,1.60
2023-08-29T02:46:38.037Z,1.90
2023-08-29T02:47:37.965Z,1.80
2023-08-29T02:48:37.939Z,2.20
2023-08-29T02:49:37.921Z,1.90
2023-08-29T02:50:37.873Z,2.10
2023-08-29T02:51:37.863Z,1.80
2023-08-29T02:52:37.904Z,2.00
2023-08-29T02:53:37.879Z,2.10
2023-08-29T02:54:37.882Z,1.80
2023-08-29T02:55:37.821Z,2.20
2023-08-29T02:56:37.878Z,2.10
2023-08-29T02:57:37.822Z,2.00
2023-08-29T02:58:37.817Z,1.70
2023-08-29T02:59:37.772Z,1.90
2023-08-29T03:00:37.779Z,1.90
2023-08-29T03:01:37.781Z,2.00
2023-08-29T03:02:37.812Z,1.90
2023-08-29T03:03:37.887Z,2.20
2023-08-29T03:04:37.715Z,1.70
2023-08-29T03:05:37.753Z,1.90
2023-08-29T03:06:37.718Z,2.00
2023-08-29T03:07:37.716Z,2.20
2023-08-29T03:08:37.697Z,1.90
2023-08-29T03:09:37.691Z,2.10
2023-08-29T03:10:37.716Z,2.20
2023-08-29T03:11:37.633Z,2.10
2023-08-29T03:12:37.652Z,2.00
2023-08-29T03:13:37.702Z,2.00
2023-08-29T03:14:37.650Z,2.10
2023-08-29T03:15:37.617Z,2.10
2023-08-29T03:16:37.631Z,2.00
2023-08-29T03:17:37.631Z,2.00
2023-08-29T03:18:37.619Z,2.00
2023-08-29T03:19:37.595Z,2.10
2023-08-29T03:20:37.605Z,2.00
2023-08-29T03:21:37.577Z,2.10
2023-08-29T03:22:37.574Z,2.00
2023-08-29T03:23:37.510Z,2.20
2023-08-29T03:24:37.522Z,1.90
2023-08-29T03:25:37.541Z,2.20
2023-08-29T03:26:37.523Z,2.20
2023-08-29T03:27:37.552Z,2.00
2023-08-29T03:28:37.456Z,1.90
2023-08-29T03:29:37.485Z,2.10
2023-08-29T03:30:37.570Z,2.20
2023-08-29T03:31:37.433Z,2.10
2023-08-29T03:32:37.490Z,2.10
2023-08-29T03:33:37.444Z,1.90
2023-08-29T03:34:37.401Z,1.80
2023-08-29T03:35:37.436Z,2.20
2023-08-29T03:36:37.370Z,1.90
2023-08-29T03:37:37.410Z,2.30
2023-08-29T03:38:37.367Z,2.10
2023-08-29T03:39:37.350Z,1.70
2023-08-29T03:40:37.357Z,1.80
2023-08-29T03:41:37.350Z,1.70
2023-08-29T03:42:37.388Z,1.80
2023-08-29T03:43:37.390Z,2.00
2023-08-29T03:44:37.302Z,1.90
2023-08-29T03:45:37.297Z,1.90
2023-08-29T03:46:37.281Z,1.80
2023-08-29T03:47:37.320Z,2.10
2023-08-29T03:48:38.277Z,1.90
2023-08-29T03:49:37.264Z,1.80
2023-08-29T03:50:37.297Z,2.00
2023-08-29T03:51:37.247Z,2.10
2023-08-29T03:52:37.236Z,2.00
2023-08-29T03:53:37.568Z,1.70
2023-08-29T03:54:37.199Z,1.90
2023-08-29T03:55:37.167Z,2.00
2023-08-29T03:56:39.595Z,2.10
2023-08-29T03:57:37.166Z,1.80
2023-08-29T03:58:37.141Z,1.60
2023-08-29T03:59:37.153Z,1.90
2023-08-29T04:00:37.165Z,2.10
2023-08-29T04:01:37.116Z,1.90
2023-08-29T04:02:37.154Z,1.90
2023-08-29T04:03:37.357Z,1.80
2023-08-29T04:04:37.335Z,2.10
2023-08-29T04:05:37.167Z,1.80
2023-08-29T04:06:37.069Z,2.00
2023-08-29T04:07:37.126Z,1.80
2023-08-29T04:08:37.076Z,1.80
2023-08-29T04:09:37.154Z,1.80
2023-08-29T04:10:37.075Z,1.70
2023-08-29T04:11:37.006Z,1.70
2023-08-29T04:12:37.028Z,1.80
2023-08-29T04:13:37.084Z,1.60
2023-08-29T04:14:36.973Z,1.70
2023-08-29T04:15:37.087Z,1.70
2023-08-29T04:16:37.133Z,1.80
2023-08-29T04:17:37.049Z,2.00
2023-08-29T04:18:37.009Z,1.70
2023-08-29T04:19:37.202Z,1.90
2023-08-29T04:20:36.962Z,1.60
2023-08-29T04:21:36.892Z,1.60
2023-08-29T04:22:36.897Z,1.50
2023-08-29T04:23:36.876Z,1.70
2023-08-29T04:24:36.871Z,1.50
2023-08-29T04:25:36.915Z,1.60
2023-08-29T04:26:36.888Z,1.60
2023-08-29T04:27:36.898Z,1.70
2023-08-29T04:28:37.040Z,1.70
2023-08-29T04:29:36.989Z,1.80
2023-08-29T04:30:37.154Z,1.40
2023-08-29T04:31:37.254Z,1.40
2023-08-29T04:32:38.746Z,1.60
2023-08-29T04:33:36.801Z,1.80
2023-08-29T04:34:36.801Z,1.80
2023-08-29T04:35:36.831Z,1.70
2023-08-29T04:36:37.103Z,1.80
2023-08-29T04:37:36.988Z,1.60
2023-08-29T04:38:36.951Z,1.80
2023-08-29T04:39:38.229Z,1.50
2023-08-29T04:40:36.979Z,1.70
2023-08-29T04:41:36.705Z,1.60
2023-08-29T04:42:37.059Z,1.60
2023-08-29T04:43:36.920Z,1.60
2023-08-29T04:44:36.830Z,1.70
2023-08-29T04:45:36.682Z,1.60
2023-08-29T04:46:36.813Z,1.60
2023-08-29T04:47:36.908Z,1.70
2023-08-29T04:48:36.865Z,1.50
2023-08-29T04:49:36.708Z,1.70
2023-08-29T04:50:36.840Z,1.40
2023-08-29T04:51:36.654Z,1.80
2023-08-29T04:52:36.602Z,1.60
2023-08-29T04:53:36.668Z,1.60
2023-08-29T04:54:36.666Z,1.60
2023-08-29T04:55:36.587Z,1.60
2023-08-29T04:56:36.579Z,1.60
2023-08-29T04:57:36.740Z,1.60
2023-08-29T04:58:37.835Z,1.60
2023-08-29T04:59:37.357Z,1.50
2023-08-29T05:00:36.544Z,1.70
2023-08-29T05:01:36.856Z,1.50
2023-08-29T05:02:36.505Z,1.70
2023-08-29T05:03:36.697Z,1.60
2023-08-29T05:04:36.692Z,1.60
2023-08-29T05:05:36.908Z,1.60
2023-08-29T05:06:36.464Z,1.70
2023-08-29T05:07:36.976Z,1.60
2023-08-29T05:08:36.565Z,1.60
2023-08-29T05:09:36.863Z,1.70
2023-08-29T05:10:36.922Z,1.80
2023-08-29T05:11:36.500Z,1.40
2023-08-29T05:12:36.922Z,1.60
2023-08-29T05:22:39.741Z,1.80
2023-08-29T05:23:39.045Z,1.80
2023-08-29T05:24:38.968Z,1.80
2023-08-29T05:25:38.939Z,1.70
2023-08-29T05:26:38.926Z,1.80
2023-08-29T05:27:38.900Z,2.00
2023-08-29T05:28:38.892Z,1.90
2023-08-29T05:29:38.895Z,1.80
2023-08-29T05:30:38.855Z,1.70
2023-08-29T05:31:38.939Z,1.90
2023-08-29T05:32:38.834Z,2.00
2023-08-29T05:33:38.812Z,1.60
2023-08-29T05:34:38.799Z,2.00
2023-08-29T05:35:38.851Z,1.80
2023-08-29T05:36:38.762Z,1.50
2023-08-29T05:37:38.783Z,1.90
2023-08-29T05:38:38.750Z,1.90
2023-08-29T05:39:38.749Z,1.80
2023-08-29T05:40:38.830Z,2.00
2023-08-29T05:41:38.711Z,1.90
2023-08-29T05:42:38.732Z,2.00
2023-08-29T05:43:38.803Z,2.30
2023-08-29T05:44:38.672Z,1.80
2023-08-29T05:45:38.717Z,2.10
2023-08-29T05:46:38.680Z,1.90
2023-08-29T05:47:38.686Z,2.10
2023-08-29T05:48:38.686Z,2.00
2023-08-29T05:49:38.622Z,2.10
2023-08-29T05:50:38.716Z,1.90
2023-08-29T05:51:38.645Z,2.00
2023-08-29T05:52:38.597Z,2.10
2023-08-29T05:53:38.643Z,2.30
2023-08-29T05:54:38.602Z,1.90
2023-08-29T05:55:38.609Z,2.40
2023-08-29T05:56:38.565Z,1.70
2023-08-29T05:57:38.614Z,2.20
2023-08-29T05:58:38.538Z,1.90
2023-08-29T05:59:38.541Z,2.20
2023-08-29T06:00:38.661Z,2.00
2023-08-29T06:01:38.479Z,2.20
2023-08-29T06:02:38.548Z,1.90
2023-08-29T06:03:38.555Z,2.00
2023-08-29T06:04:38.480Z,2.10
2023-08-29T06:05:38.466Z,1.90
2023-08-29T06:06:38.456Z,2.20
2023-08-29T06:07:38.418Z,2.00
2023-08-29T06:08:38.442Z,2.10
2023-08-29T06:09:38.470Z,1.80
2023-08-29T06:10:38.395Z,2.10
2023-08-29T06:11:38.381Z,2.20
2023-08-29T06:12:38.386Z,2.10
2023-08-29T06:13:38.394Z,2.30
2023-08-29T06:14:38.346Z,2.20
2023-08-29T06:15:38.497Z,2.10
2023-08-29T06:16:38.420Z,2.10
2023-08-29T06:17:38.474Z,2.40
2023-08-29T06:18:38.337Z,2.10
2023-08-29T06:19:38.441Z,2.00
2023-08-29T06:20:38.297Z,2.30
2023-08-29T06:21:38.309Z,2.30
2023-08-29T06:22:38.280Z,2.20
2023-08-29T06:23:38.310Z,2.00
2023-08-29T06:24:38.270Z,1.90
2023-08-29T06:25:38.260Z,2.20
2023-08-29T06:26:38.271Z,2.00
2023-08-29T06:27:38.230Z,2.30
2023-08-29T06:28:38.231Z,2.20
2023-08-29T06:29:38.343Z,2.10
2023-08-29T06:30:38.257Z,2.10
2023-08-29T06:31:38.232Z,2.40
2023-08-29T06:32:38.198Z,1.80
2023-08-29T06:33:38.210Z,2.30
2023-08-29T06:34:38.178Z,2.20
2023-08-29T06:35:38.205Z,1.90
2023-08-29T06:36:38.106Z,2.10
2023-08-29T06:37:38.118Z,2.10
2023-08-29T06:38:38.133Z,2.40
2023-08-29T06:39:38.130Z,2.20
2023-08-29T06:40:44.699Z,2.10
2023-08-29T06:41:38.111Z,2.30
2023-08-29T06:42:38.021Z,2.70
2023-08-29T06:43:38.105Z,2.50
2023-08-29T06:44:38.038Z,2.20
2023-08-29T06:45:37.996Z,2.30
2023-08-29T06:46:38.042Z,2.10
2023-08-29T06:47:38.004Z,2.10
2023-08-29T06:48:37.968Z,2.60
2023-08-29T06:49:37.966Z,2.50
2023-08-29T06:50:37.955Z,2.60
2023-08-29T06:51:37.933Z,2.40
2023-08-29T06:52:37.948Z,2.40
2023-08-29T06:53:37.951Z,2.10
2023-08-29T06:54:37.933Z,2.20
2023-08-29T06:55:37.885Z,2.40
2023-08-29T06:56:37.872Z,2.20
2023-08-29T06:57:37.853Z,2.10
2023-08-29T06:58:37.869Z,2.10
2023-08-29T06:59:37.856Z,2.50
2023-08-29T07:00:37.862Z,2.10
2023-08-29T07:01:37.823Z,2.20
2023-08-29T07:02:37.857Z,2.40
2023-08-29T07:03:37.888Z,2.30
2023-08-29T07:04:37.781Z,2.20
2023-08-29T07:05:37.770Z,2.60
2023-08-29T07:06:37.782Z,2.40
2023-08-29T07:07:37.744Z,2.30
2023-08-29T07:08:37.732Z,2.70
2023-08-29T07:09:37.739Z,2.50
2023-08-29T07:10:37.755Z,2.60
2023-08-29T07:11:37.906Z,2.60
2023-08-29T07:12:37.725Z,2.60
2023-08-29T07:13:37.708Z,2.60
2023-08-29T07:14:37.653Z,2.50
2023-08-29T07:15:37.667Z,2.40
2023-08-29T07:16:37.681Z,2.60
2023-08-29T07:17:37.690Z,2.50
2023-08-29T07:18:37.633Z,2.40
2023-08-29T07:19:37.638Z,2.40
2023-08-29T07:20:37.606Z,2.40
2023-08-29T07:21:37.639Z,2.40
2023-08-29T07:22:37.819Z,2.50
2023-08-29T07:23:37.614Z,2.60
2023-08-29T07:24:37.561Z,2.50
2023-08-29T07:25:37.593Z,2.70
2023-08-29T07:26:37.524Z,2.90
2023-08-29T07:27:37.563Z,2.60
2023-08-29T07:28:37.523Z,2.40
2023-08-29T07:29:37.551Z,2.80
2023-08-29T07:30:37.534Z,2.60
2023-08-29T07:31:38.776Z,2.60
2023-08-29T07:32:37.503Z,2.50
2023-08-29T07:33:37.493Z,2.50
2023-08-29T07:34:37.463Z,2.20
2023-08-29T07:35:37.444Z,2.60
2023-08-29T07:36:37.415Z,2.20
2023-08-29T07:37:38.434Z,2.70
2023-08-29T07:38:37.490Z,2.70
2023-08-29T07:39:37.418Z,2.90
2023-08-29T07:40:37.516Z,2.80
2023-08-29T07:41:37.386Z,2.70
2023-08-29T07:42:37.373Z,2.50
2023-08-29T07:43:37.405Z,2.70
2023-08-29T07:44:37.351Z,2.40
2023-08-29T07:45:37.344Z,2.70
2023-08-29T07:46:37.371Z,2.90
2023-08-29T07:47:37.356Z,2.60
2023-08-29T07:48:37.307Z,2.60
2023-08-29T07:49:37.337Z,2.30
2023-08-29T07:50:37.265Z,2.40
2023-08-29T07:51:37.272Z,2.70
2023-08-29T07:52:39.373Z,2.60
2023-08-29T07:53:37.460Z,2.50
2023-08-29T07:54:37.232Z,2.70
2023-08-29T07:55:37.244Z,2.60
2023-08-29T07:56:37.253Z,2.60
2023-08-29T07:57:37.233Z,2.40
2023-08-29T07:58:37.216Z,2.60
2023-08-29T07:59:37.206Z,2.50
2023-08-29T08:00:37.190Z,2.50
2023-08-29T08:01:37.253Z,2.80
2023-08-29T08:02:37.213Z,2.90
2023-08-29T08:03:37.410Z,2.70
2023-08-29T08:04:37.136Z,2.50
2023-08-29T08:05:37.117Z,2.70
2023-08-29T08:06:37.129Z,2.80
2023-08-29T08:07:37.095Z,2.40
2023-08-29T08:08:37.078Z,2.60
2023-08-29T08:09:37.107Z,2.70
2023-08-29T08:10:37.116Z,2.60
2023-08-29T08:11:37.086Z,2.90
2023-08-29T08:12:37.060Z,2.50
2023-08-29T08:13:37.059Z,2.40
2023-08-29T08:14:37.018Z,2.50
2023-08-29T08:15:37.031Z,2.60
2023-08-29T08:16:37.118Z,2.70
2023-08-29T08:17:37.061Z,2.50
2023-08-29T08:18:36.985Z,2.50
2023-08-29T08:19:37.016Z,2.30
2023-08-29T08:20:37.019Z,2.40
2023-08-29T08:21:36.952Z,2.20
2023-08-29T08:22:36.923Z,2.50
2023-08-29T08:23:36.970Z,2.60
2023-08-29T08:24:36.900Z,2.30
2023-08-29T08:25:36.896Z,2.20
2023-08-29T08:26:36.877Z,2.40
2023-08-29T08:27:36.898Z,2.20
2023-08-29T08:28:36.858Z,2.50
2023-08-29T08:29:36.856Z,2.30
2023-08-29T08:30:36.850Z,2.20
2023-08-29T08:31:36.839Z,2.30
2023-08-29T08:32:36.836Z,2.30
2023-08-29T08:33:36.890Z,2.30
2023-08-29T08:34:36.850Z,2.40
2023-08-29T08:35:41.517Z,2.30
2023-08-29T08:36:36.777Z,2.10
2023-08-29T08:37:36.781Z,2.20
2023-08-29T08:38:36.756Z,2.10
2023-08-29T08:39:36.785Z,2.10
2023-08-29T08:40:36.796Z,2.00
2023-08-29T08:41:36.724Z,2.40
2023-08-29T08:42:36.745Z,2.30
2023-08-29T08:43:36.767Z,2.70
2023-08-29T08:44:36.729Z,2.30
2023-08-29T08:45:36.676Z,1.90
2023-08-29T08:46:36.672Z,2.00
2023-08-29T08:47:36.679Z,2.30
2023-08-29T08:48:36.635Z,2.30
2023-08-29T08:49:36.643Z,2.00
2023-08-29T08:50:36.647Z,2.30
2023-08-29T08:51:36.608Z,2.00
2023-08-29T08:52:36.628Z,2.40
2023-08-29T08:53:36.597Z,2.20
2023-08-29T08:54:36.608Z,2.40
2023-08-29T08:55:36.576Z,2.30
2023-08-29T08:56:36.563Z,2.20
2023-08-29T08:57:36.559Z,2.50
2023-08-29T08:58:36.557Z,2.30
2023-08-29T08:59:36.540Z,2.30
2023-08-29T09:00:36.509Z,2.30
2023-08-29T09:01:36.566Z,1.80
2023-08-29T09:02:36.569Z,1.80
2023-08-29T09:03:36.679Z,1.90
2023-08-29T09:04:36.490Z,2.10
2023-08-29T09:05:36.475Z,2.10
2023-08-29T09:06:36.471Z,2.00
2023-08-29T09:07:36.456Z,2.40
2023-08-29T09:08:36.430Z,2.30
2023-08-29T09:09:36.436Z,2.30
2023-08-29T09:10:36.416Z,2.00
2023-08-29T09:11:36.424Z,2.30
2023-08-29T09:12:36.388Z,2.10
2023-08-29T09:13:36.420Z,2.20
2023-08-29T09:14:36.378Z,2.30
2023-08-29T09:15:36.348Z,1.90
2023-08-29T09:16:36.353Z,1.90
2023-08-29T09:17:36.374Z,1.80
2023-08-29T09:18:36.325Z,2.00
2023-08-29T09:19:36.315Z,1.90
2023-08-29T09:20:36.319Z,1.80
2023-08-29T09:21:36.598Z,2.00
2023-08-29T09:22:36.282Z,1.80
2023-08-29T09:23:36.279Z,1.90
2023-08-29T09:24:36.261Z,1.90
2023-08-29T09:25:36.234Z,2.00
2023-08-29T09:26:36.228Z,1.80
2023-08-29T09:27:36.241Z,1.90
2023-08-29T09:28:36.214Z,1.70
2023-08-29T09:29:36.205Z,1.70
2023-08-29T09:30:36.203Z,2.10
2023-08-29T09:31:36.263Z,1.80
2023-08-29T09:32:36.203Z,1.90
2023-08-29T09:33:36.219Z,1.70
2023-08-29T09:34:36.138Z,1.80
2023-08-29T09:35:36.157Z,2.00
2023-08-29T09:36:36.125Z,2.00
2023-08-29T09:37:36.098Z,1.90
2023-08-29T09:38:36.102Z,2.00
2023-08-29T09:39:36.177Z,1.80
2023-08-29T09:40:40.008Z,1.80
2023-08-29T09:41:36.062Z,2.00
2023-08-29T09:42:36.038Z,2.30
2023-08-29T09:43:36.068Z,1.80
2023-08-29T09:44:36.046Z,1.80
2023-08-29T09:45:36.044Z,1.50
2023-08-29T09:46:36.006Z,1.70
2023-08-29T09:47:36.027Z,1.90
2023-08-29T09:48:36.011Z,1.50
2023-08-29T09:49:35.984Z,1.70
2023-08-29T09:50:35.982Z,1.50
2023-08-29T09:51:35.934Z,1.40
2023-08-29T09:52:35.970Z,1.50
2023-08-29T09:53:35.933Z,1.50
2023-08-29T09:54:35.930Z,1.40
2023-08-29T09:55:35.932Z,1.50
2023-08-29T09:56:35.887Z,1.50
2023-08-29T09:57:35.866Z,1.30
2023-08-29T09:58:35.917Z,1.30
2023-08-29T09:59:35.863Z,1.60
2023-08-29T10:00:35.920Z,1.40
2023-08-29T10:01:35.890Z,1.40
2023-08-29T10:02:35.994Z,1.40
2023-08-29T10:03:35.993Z,1.40
2023-08-29T10:04:35.827Z,1.40
2023-08-29T10:05:35.788Z,1.50
2023-08-29T10:06:35.823Z,1.60
2023-08-29T10:07:35.765Z,1.10
2023-08-29T10:08:35.772Z,1.40
2023-08-29T10:09:35.747Z,1.40
2023-08-29T10:10:35.738Z,1.20
2023-08-29T10:11:48.428Z,1.00
2023-08-29T10:12:35.724Z,1.00
2023-08-29T10:13:35.733Z,1.10
2023-08-29T10:14:35.690Z,1.20
2023-08-29T10:15:38.653Z,1.20
2023-08-29T10:16:35.747Z,1.20
2023-08-29T10:17:35.852Z,1.30
2023-08-29T10:18:35.670Z,1.10
2023-08-29T10:19:35.646Z,1.10
2023-08-29T10:20:35.662Z,1.00
2023-08-29T10:21:35.639Z,1.40
2023-08-29T10:22:35.653Z,1.10
2023-08-29T10:23:35.594Z,1.10
2023-08-29T10:24:35.601Z,1.10
2023-08-29T10:25:35.577Z,1.20
2023-08-29T10:26:35.590Z,1.40
2023-08-29T10:27:35.580Z,1.30
2023-08-29T10:28:35.541Z,1.20
2023-08-29T10:29:35.546Z,1.40
2023-08-29T10:30:35.523Z,1.10
2023-08-29T10:31:35.534Z,1.00
2023-08-29T10:32:35.524Z,1.20
2023-08-29T10:33:35.488Z,1.20
2023-08-29T10:34:35.513Z,1.20
2023-08-29T10:35:35.459Z,1.10
2023-08-29T10:36:35.474Z,1.10
2023-08-29T10:37:35.479Z,1.00
2023-08-29T10:38:35.449Z,1.10
2023-08-29T10:39:35.416Z,1.10
2023-08-29T10:40:35.443Z,1.20
2023-08-29T10:41:35.430Z,1.20
2023-08-29T10:42:35.393Z,1.10
2023-08-29T10:43:35.378Z,1.30
2023-08-29T10:44:35.407Z,1.20
2023-08-29T10:45:35.348Z,1.20
2023-08-29T10:46:35.458Z,1.40
2023-08-29T10:47:35.361Z,1.30
2023-08-29T10:48:35.323Z,1.40
2023-08-29T10:49:35.318Z,1.10
2023-08-29T10:50:35.294Z,1.40
2023-08-29T10:51:35.294Z,1.50
2023-08-29T10:52:35.290Z,1.30
2023-08-29T10:53:35.284Z,1.50
2023-08-29T10:54:35.250Z,1.50
2023-08-29T10:55:35.243Z,1.60
2023-08-29T10:56:35.285Z,1.40
2023-08-29T10:57:35.204Z,1.60
2023-08-29T10:58:35.212Z,1.30
2023-08-29T10:59:35.211Z,1.40
2023-08-29T11:00:35.389Z,1.60
2023-08-29T11:01:35.225Z,1.50
2023-08-29T11:02:35.201Z,1.50
2023-08-29T11:03:35.186Z,1.50
2023-08-29T11:04:45.513Z,1.50
2023-08-29T11:05:35.204Z,1.80
2023-08-29T11:06:35.131Z,1.70
2023-08-29T11:07:35.158Z,1.70
2023-08-29T11:08:35.111Z,2.00
2023-08-29T11:09:35.085Z,1.90
2023-08-29T11:10:35.097Z,1.80
2023-08-29T11:11:35.071Z,1.60
2023-08-29T11:12:35.073Z,1.60
2023-08-29T11:13:35.031Z,1.90
2023-08-29T11:14:35.068Z,1.70
2023-08-29T11:15:35.037Z,1.60
2023-08-29T11:16:35.033Z,1.80
2023-08-29T11:17:35.036Z,1.50
2023-08-29T11:18:34.994Z,1.70
2023-08-29T11:19:34.990Z,1.50
2023-08-29T11:20:34.990Z,1.50
2023-08-29T11:21:34.991Z,2.00
2023-08-29T11:22:34.969Z,1.50
2023-08-29T11:23:34.927Z,1.50
2023-08-29T11:24:34.927Z,1.60
2023-08-29T11:25:34.925Z,1.80
2023-08-29T11:26:34.902Z,1.90
2023-08-29T11:27:34.885Z,1.60
2023-08-29T11:28:34.872Z,1.80
2023-08-29T11:29:34.862Z,1.90
2023-08-29T11:30:43.288Z,1.70
2023-08-29T11:31:34.933Z,1.80
2023-08-29T11:32:34.904Z,2.00
2023-08-29T11:33:34.852Z,1.90
2023-08-29T11:34:34.846Z,2.20
2023-08-29T11:35:34.796Z,2.20
2023-08-29T11:36:34.784Z,1.70
2023-08-29T11:37:34.777Z,1.80
2023-08-29T11:38:34.824Z,1.60
2023-08-29T11:39:34.761Z,1.80
2023-08-29T11:40:44.251Z,1.70
2023-08-29T11:41:48.245Z,1.70
2023-08-29T11:42:55.841Z,1.80
2023-08-29T11:44:17.096Z,1.90
2023-08-29T11:45:44.849Z,2.00
2023-08-29T11:46:42.259Z,2.10
2023-08-29T11:47:42.284Z,2.40
2023-08-29T11:48:42.257Z,2.60
2023-08-29T11:49:42.191Z,2.00
2023-08-29T11:50:42.258Z,1.90
2023-08-29T11:51:42.204Z,2.40
2023-08-29T11:52:42.186Z,2.10
2023-08-29T11:53:42.174Z,2.30
2023-08-29T11:54:42.210Z,2.90
2023-08-29T11:55:42.177Z,2.10
2023-08-29T11:56:42.159Z,2.50
2023-08-29T11:57:42.112Z,2.70
2023-08-29T11:58:42.122Z,2.40
2023-08-29T11:59:42.096Z,2.60
2023-08-29T12:00:42.089Z,2.30
2023-08-29T12:01:42.181Z,2.20
2023-08-29T12:02:42.099Z,2.70
2023-08-29T12:03:42.101Z,2.60
2023-08-29T12:04:42.039Z,2.40
2023-08-29T12:05:42.044Z,2.50
2023-08-29T12:06:42.047Z,2.70
2023-08-29T12:07:42.009Z,2.20
2023-08-29T12:08:42.025Z,2.40
2023-08-29T12:09:42.003Z,2.70
2023-08-29T12:10:42.012Z,2.50
2023-08-29T12:11:41.979Z,2.50
2023-08-29T12:12:41.975Z,2.60
2023-08-29T12:13:41.950Z,2.60
2023-08-29T12:14:41.940Z,2.60
2023-08-29T12:15:44.364Z,2.70
2023-08-29T12:16:41.995Z,2.40
2023-08-29T12:17:41.990Z,2.50
2023-08-29T12:18:41.940Z,2.40
2023-08-29T12:19:41.891Z,2.60
2023-08-29T12:20:41.860Z,2.80
2023-08-29T12:21:41.883Z,2.80
2023-08-29T12:22:41.845Z,2.70
2023-08-29T12:23:41.824Z,2.60
2023-08-29T12:24:41.859Z,2.90
2023-08-29T12:25:41.830Z,2.60
2023-08-29T12:26:41.819Z,3.00
2023-08-29T12:27:41.796Z,2.80
2023-08-29T12:28:41.780Z,2.50
2023-08-29T12:29:41.836Z,2.90
2023-08-29T12:30:41.778Z,2.50
2023-08-29T12:31:41.773Z,2.70
2023-08-29T12:32:41.778Z,2.90
2023-08-29T12:33:41.736Z,2.70
2023-08-29T12:34:41.727Z,3.30
2023-08-29T12:35:41.723Z,2.80
2023-08-29T12:36:41.712Z,2.70
2023-08-29T12:37:41.688Z,2.90
2023-08-29T12:38:41.700Z,2.60
2023-08-29T12:39:41.672Z,2.70
2023-08-29T12:41:51.774Z,2.50
2023-08-29T12:42:52.579Z,3.10
2023-08-29T12:43:52.558Z,2.50
2023-08-29T12:44:52.583Z,3.00
2023-08-29T12:45:59.327Z,3.20
2023-08-29T12:46:52.598Z,3.10
2023-08-29T12:47:52.686Z,2.90
2023-08-29T12:48:52.538Z,3.10
2023-08-29T12:49:52.504Z,2.90
2023-08-29T12:50:52.542Z,3.00
2023-08-29T12:51:52.475Z,2.80
2023-08-29T12:52:52.502Z,2.70
2023-08-29T12:53:52.470Z,2.80
2023-08-29T12:54:52.542Z,3.00
2023-08-29T12:55:52.448Z,2.80
2023-08-29T12:56:52.467Z,3.10
2023-08-29T12:57:52.412Z,2.90
2023-08-29T12:58:52.471Z,3.00
2023-08-29T12:59:52.407Z,2.80
2023-08-29T13:00:52.423Z,2.70
2023-08-29T13:01:52.434Z,2.70
2023-08-29T13:02:52.466Z,2.90
2023-08-29T13:03:52.466Z,2.90
2023-08-29T13:04:52.344Z,3.20
2023-08-29T13:05:52.351Z,2.70
2023-08-29T13:06:52.326Z,3.00
2023-08-29T13:07:52.328Z,3.20
2023-08-29T13:08:52.310Z,3.00
2023-08-29T13:09:52.305Z,2.90
2023-08-29T13:10:52.302Z,2.90
2023-08-29T13:11:52.293Z,3.50
2023-08-29T13:12:52.253Z,2.80
2023-08-29T13:13:52.245Z,3.20
2023-08-29T13:14:52.232Z,3.10
2023-08-29T13:15:52.270Z,3.80
2023-08-29T13:16:52.218Z,3.40
2023-08-29T13:17:52.281Z,3.50
2023-08-29T13:18:52.206Z,3.30
2023-08-29T13:19:52.216Z,3.20
2023-08-29T13:20:52.150Z,3.50
2023-08-29T13:21:52.185Z,3.10
2023-08-29T13:22:52.152Z,3.90
2023-08-29T13:23:52.136Z,3.20
2023-08-29T13:24:52.133Z,3.70
2023-08-29T13:25:52.115Z,3.50
2023-08-29T13:26:52.125Z,3.70
2023-08-29T13:27:52.123Z,3.50
2023-08-29T13:28:52.079Z,3.30
2023-08-29T13:29:52.072Z,2.90